Portada
METAR-TAF:

METAR-TAF

Aeroports :

Ghriss, Algèria

latitud: 35-12N, longitud: 000-08E, altitud: 514 m

Observació

L'informe es va fer fa 56 minuts, a les 16:00 UTC
Vent 17 kt del Est/Nord-Est
Temperatura 22°C
Humitat 46%
Pressió 1011 hPa
Visibilitat 10 km o més
sense núvols per sota de 1500 mi sense presència de cumulonimbus.

METAR: DAOV 261600Z 06017KT CAVOK 22/10 Q1011

Hora: 17:56 (16:56 UTC)

Pronòstic

L'informe es va fer fa 2 hores i 56 minuts, a les 14:00 UTC
Pronòstic vàlid del 26 a les 15 UTC al 26 a les 24 UTC
Vent 13 kt del Nord-Est
Visibilitat 10 km o més
sense núvols per sota de 1500 mi sense presència de cumulonimbus.
Evolucionant progressivament
l' 26 a les 21 UTC al 26 a les 23 UTC
Visibilitat: 6000 m
Núvols disperses a una alçada de 2600 ft

TAF: DAOV 261400Z 2615/2624 05013KT CAVOK BECMG 2621/2623 6000 SCT026

Observacions i pronòstics meteorològics de més de 4000 aeroports (METAR i TAF).

Les estacions disponibles són els punts grocs i vermells al mapa.

Posi el ratolí al punt desitjat per veure el nom de l'estació.

Feu clic per veure les observacions i els pronòstics meteorològics.

Per canviar el mapa: feu clic els botons verds amb una creu de color negre per apropar; al botó verd amb un guió per allunyar la imatge; o en les fletxes verdes per a mapes adjacents.


METAR-TAF: